sensor_id;sensor_type;location;lat;lon;timestamp;pressure;altitude;pressure_sealevel;temperature
68510;BMP180;55512;50.102;19.958;2023-03-30T00:00:08;98781.80;;;3.60
68510;BMP180;55512;50.102;19.958;2023-03-30T00:02:45;98779.80;;;3.60
68510;BMP180;55512;50.102;19.958;2023-03-30T00:05:11;98772.60;;;3.60
68510;BMP180;55512;50.102;19.958;2023-03-30T00:07:38;98771.80;;;3.60
68510;BMP180;55512;50.102;19.958;2023-03-30T00:10:08;98767.60;;;3.60
68510;BMP180;55512;50.102;19.958;2023-03-30T00:12:35;98770.40;;;3.60
68510;BMP180;55512;50.102;19.958;2023-03-30T00:15:00;98769.60;;;3.66
68510;BMP180;55512;50.102;19.958;2023-03-30T00:17:26;98773.20;;;3.70
68510;BMP180;55512;50.102;19.958;2023-03-30T00:19:52;98767.60;;;3.70
68510;BMP180;55512;50.102;19.958;2023-03-30T00:22:17;98766.20;;;3.70
68510;BMP180;55512;50.102;19.958;2023-03-30T00:24:43;98762.40;;;3.70
68510;BMP180;55512;50.102;19.958;2023-03-30T00:27:08;98760.80;;;3.70
68510;BMP180;55512;50.102;19.958;2023-03-30T00:29:34;98762.80;;;3.76
68510;BMP180;55512;50.102;19.958;2023-03-30T00:31:59;98765.40;;;3.80
68510;BMP180;55512;50.102;19.958;2023-03-30T00:34:25;98758.80;;;3.80
68510;BMP180;55512;50.102;19.958;2023-03-30T00:36:50;98760.60;;;3.80
68510;BMP180;55512;50.102;19.958;2023-03-30T00:39:18;98761.00;;;3.80
68510;BMP180;55512;50.102;19.958;2023-03-30T00:41:47;98758.40;;;3.80
68510;BMP180;55512;50.102;19.958;2023-03-30T00:47:40;98745.60;;;3.84
68510;BMP180;55512;50.102;19.958;2023-03-30T00:50:08;98746.00;;;3.90
68510;BMP180;55512;50.102;19.958;2023-03-30T00:52:35;98739.80;;;3.90
68510;BMP180;55512;50.102;19.958;2023-03-30T00:55:02;98740.00;;;3.90
68510;BMP180;55512;50.102;19.958;2023-03-30T00:57:28;98739.20;;;3.90
68510;BMP180;55512;50.102;19.958;2023-03-30T00:59:55;98739.80;;;3.90
68510;BMP180;55512;50.102;19.958;2023-03-30T01:02:21;98736.60;;;3.90
68510;BMP180;55512;50.102;19.958;2023-03-30T01:04:52;98735.20;;;4.00
68510;BMP180;55512;50.102;19.958;2023-03-30T01:07:19;98733.60;;;4.00
68510;BMP180;55512;50.102;19.958;2023-03-30T01:09:49;98727.40;;;4.00
68510;BMP180;55512;50.102;19.958;2023-03-30T01:12:16;98728.80;;;4.10
68510;BMP180;55512;50.102;19.958;2023-03-30T01:14:42;98725.60;;;4.10
68510;BMP180;55512;50.102;19.958;2023-03-30T01:17:55;98721.60;;;4.10
68510;BMP180;55512;50.102;19.958;2023-03-30T01:26:56;98712.60;;;4.20
68510;BMP180;55512;50.102;19.958;2023-03-30T01:29:46;98711.40;;;4.20
68510;BMP180;55512;50.102;19.958;2023-03-30T01:38:50;98709.80;;;4.20
68510;BMP180;55512;50.102;19.958;2023-03-30T01:46:47;98713.60;;;4.02
68510;BMP180;55512;50.102;19.958;2023-03-30T01:52:31;98711.20;;;4.00
68510;BMP180;55512;50.102;19.958;2023-03-30T01:55:31;98706.80;;;3.90
68510;BMP180;55512;50.102;19.958;2023-03-30T01:58:07;98705.60;;;3.90
68510;BMP180;55512;50.102;19.958;2023-03-30T02:00:35;98701.00;;;3.90
68510;BMP180;55512;50.102;19.958;2023-03-30T02:03:12;98702.20;;;3.86
68510;BMP180;55512;50.102;19.958;2023-03-30T02:05:40;98700.00;;;3.86
68510;BMP180;55512;50.102;19.958;2023-03-30T02:08:12;98701.60;;;3.84
68510;BMP180;55512;50.102;19.958;2023-03-30T02:10:42;98703.20;;;3.88
68510;BMP180;55512;50.102;19.958;2023-03-30T02:13:10;98707.00;;;3.88
68510;BMP180;55512;50.102;19.958;2023-03-30T02:15:42;98705.40;;;3.90
68510;BMP180;55512;50.102;19.958;2023-03-30T02:18:09;98699.00;;;3.90
68510;BMP180;55512;50.102;19.958;2023-03-30T02:20:35;98695.00;;;3.90
68510;BMP180;55512;50.102;19.958;2023-03-30T02:23:03;98696.20;;;3.90
68510;BMP180;55512;50.102;19.958;2023-03-30T02:25:31;98693.20;;;3.88
68510;BMP180;55512;50.102;19.958;2023-03-30T02:27:57;98693.80;;;3.84
68510;BMP180;55512;50.102;19.958;2023-03-30T02:30:22;98692.60;;;3.84
68510;BMP180;55512;50.102;19.958;2023-03-30T02:32:53;98690.80;;;3.80
68510;BMP180;55512;50.102;19.958;2023-03-30T02:36:04;98689.80;;;3.80
68510;BMP180;55512;50.102;19.958;2023-03-30T02:39:20;98678.60;;;3.80
68510;BMP180;55512;50.102;19.958;2023-03-30T02:53:47;98666.60;;;3.90
68510;BMP180;55512;50.102;19.958;2023-03-30T02:57:17;98669.80;;;4.00
68510;BMP180;55512;50.102;19.958;2023-03-30T02:59:35;98668.20;;;4.00
68510;BMP180;55512;50.102;19.958;2023-03-30T03:02:28;98667.40;;;4.00
68510;BMP180;55512;50.102;19.958;2023-03-30T03:04:56;98665.60;;;4.00
68510;BMP180;55512;50.102;19.958;2023-03-30T03:07:24;98659.60;;;4.00
68510;BMP180;55512;50.102;19.958;2023-03-30T03:09:52;98656.40;;;4.00
68510;BMP180;55512;50.102;19.958;2023-03-30T03:12:17;98658.60;;;4.00
68510;BMP180;55512;50.102;19.958;2023-03-30T03:14:43;98655.40;;;4.10
68510;BMP180;55512;50.102;19.958;2023-03-30T03:17:09;98659.60;;;4.10
68510;BMP180;55512;50.102;19.958;2023-03-30T03:19:35;98651.80;;;4.10
68510;BMP180;55512;50.102;19.958;2023-03-30T03:22:00;98649.40;;;4.10
68510;BMP180;55512;50.102;19.958;2023-03-30T03:24:26;98654.20;;;4.10
68510;BMP180;55512;50.102;19.958;2023-03-30T03:26:51;98646.20;;;4.10
68510;BMP180;55512;50.102;19.958;2023-03-30T03:29:17;98650.20;;;4.10
68510;BMP180;55512;50.102;19.958;2023-03-30T03:31:42;98648.40;;;4.10
68510;BMP180;55512;50.102;19.958;2023-03-30T03:34:07;98642.80;;;4.10
68510;BMP180;55512;50.102;19.958;2023-03-30T03:36:33;98634.80;;;4.10
68510;BMP180;55512;50.102;19.958;2023-03-30T03:38:59;98634.00;;;4.10
68510;BMP180;55512;50.102;19.958;2023-03-30T03:41:24;98633.40;;;4.10
68510;BMP180;55512;50.102;19.958;2023-03-30T03:43:50;98627.60;;;4.10
68510;BMP180;55512;50.102;19.958;2023-03-30T03:46:16;98622.00;;;4.10
68510;BMP180;55512;50.102;19.958;2023-03-30T03:48:41;98619.20;;;4.10
68510;BMP180;55512;50.102;19.958;2023-03-30T03:51:07;98617.60;;;4.12
68510;BMP180;55512;50.102;19.958;2023-03-30T03:53:33;98614.20;;;4.18
68510;BMP180;55512;50.102;19.958;2023-03-30T03:55:59;98607.60;;;4.20
68510;BMP180;55512;50.102;19.958;2023-03-30T03:58:25;98612.00;;;4.20
68510;BMP180;55512;50.102;19.958;2023-03-30T04:00:51;98607.20;;;4.20
68510;BMP180;55512;50.102;19.958;2023-03-30T04:03:21;98601.40;;;4.20
68510;BMP180;55512;50.102;19.958;2023-03-30T04:05:46;98598.00;;;4.20
68510;BMP180;55512;50.102;19.958;2023-03-30T04:08:12;98599.00;;;4.20
68510;BMP180;55512;50.102;19.958;2023-03-30T04:10:40;98592.80;;;4.20
68510;BMP180;55512;50.102;19.958;2023-03-30T04:13:06;98595.60;;;4.30
68510;BMP180;55512;50.102;19.958;2023-03-30T04:15:32;98589.60;;;4.30
68510;BMP180;55512;50.102;19.958;2023-03-30T04:17:58;98591.80;;;4.30
68510;BMP180;55512;50.102;19.958;2023-03-30T04:20:28;98588.60;;;4.30
68510;BMP180;55512;50.102;19.958;2023-03-30T04:22:54;98587.40;;;4.38
68510;BMP180;55512;50.102;19.958;2023-03-30T04:25:22;98591.80;;;4.40
68510;BMP180;55512;50.102;19.958;2023-03-30T04:27:52;98578.40;;;4.40
68510;BMP180;55512;50.102;19.958;2023-03-30T04:30:19;98578.80;;;4.40
68510;BMP180;55512;50.102;19.958;2023-03-30T04:32:45;98575.00;;;4.40
68510;BMP180;55512;50.102;19.958;2023-03-30T04:35:19;98570.60;;;4.50
68510;BMP180;55512;50.102;19.958;2023-03-30T04:37:45;98564.20;;;4.50
68510;BMP180;55512;50.102;19.958;2023-03-30T04:40:11;98567.20;;;4.50
68510;BMP180;55512;50.102;19.958;2023-03-30T04:42:38;98569.20;;;4.44
68510;BMP180;55512;50.102;19.958;2023-03-30T04:45:07;98572.00;;;4.40
68510;BMP180;55512;50.102;19.958;2023-03-30T04:47:34;98568.40;;;4.46
68510;BMP180;55512;50.102;19.958;2023-03-30T04:50:00;98564.20;;;4.46
68510;BMP180;55512;50.102;19.958;2023-03-30T04:52:26;98563.60;;;4.50
68510;BMP180;55512;50.102;19.958;2023-03-30T04:54:52;98559.20;;;4.50
68510;BMP180;55512;50.102;19.958;2023-03-30T04:57:17;98555.40;;;4.54
68510;BMP180;55512;50.102;19.958;2023-03-30T04:59:43;98558.80;;;4.58
68510;BMP180;55512;50.102;19.958;2023-03-30T05:02:11;98558.80;;;4.60
68510;BMP180;55512;50.102;19.958;2023-03-30T05:04:37;98567.20;;;4.60
68510;BMP180;55512;50.102;19.958;2023-03-30T05:07:04;98562.80;;;4.60
68510;BMP180;55512;50.102;19.958;2023-03-30T05:09:31;98561.00;;;4.70
68510;BMP180;55512;50.102;19.958;2023-03-30T05:11:56;98561.80;;;4.72
68510;BMP180;55512;50.102;19.958;2023-03-30T05:14:22;98555.00;;;4.80
68510;BMP180;55512;50.102;19.958;2023-03-30T05:16:47;98554.80;;;4.80
68510;BMP180;55512;50.102;19.958;2023-03-30T05:19:13;98554.80;;;4.86
68510;BMP180;55512;50.102;19.958;2023-03-30T05:21:38;98546.80;;;4.90
68510;BMP180;55512;50.102;19.958;2023-03-30T05:24:04;98550.20;;;4.90
68510;BMP180;55512;50.102;19.958;2023-03-30T05:26:30;98549.60;;;4.94
68510;BMP180;55512;50.102;19.958;2023-03-30T05:28:56;98545.00;;;5.00
68510;BMP180;55512;50.102;19.958;2023-03-30T05:31:21;98554.00;;;5.08
68510;BMP180;55512;50.102;19.958;2023-03-30T05:33:47;98548.80;;;5.10
68510;BMP180;55512;50.102;19.958;2023-03-30T05:36:13;98546.40;;;5.20
68510;BMP180;55512;50.102;19.958;2023-03-30T05:38:38;98544.20;;;5.20
68510;BMP180;55512;50.102;19.958;2023-03-30T05:41:04;98546.00;;;5.24
68510;BMP180;55512;50.102;19.958;2023-03-30T05:43:32;98545.20;;;5.30
68510;BMP180;55512;50.102;19.958;2023-03-30T05:45:58;98550.00;;;5.32
68510;BMP180;55512;50.102;19.958;2023-03-30T05:48:24;98551.80;;;5.40
68510;BMP180;55512;50.102;19.958;2023-03-30T05:50:49;98544.80;;;5.40
68510;BMP180;55512;50.102;19.958;2023-03-30T05:53:15;98545.60;;;5.50
68510;BMP180;55512;50.102;19.958;2023-03-30T05:55:45;98546.80;;;5.50
68510;BMP180;55512;50.102;19.958;2023-03-30T05:58:12;98543.00;;;5.58
68510;BMP180;55512;50.102;19.958;2023-03-30T06:00:38;98544.60;;;5.60
68510;BMP180;55512;50.102;19.958;2023-03-30T06:03:06;98546.60;;;5.70
68510;BMP180;55512;50.102;19.958;2023-03-30T06:05:38;98539.80;;;5.78
68510;BMP180;55512;50.102;19.958;2023-03-30T06:08:08;98541.00;;;5.80
68510;BMP180;55512;50.102;19.958;2023-03-30T06:10:34;98539.40;;;5.90
68510;BMP180;55512;50.102;19.958;2023-03-30T06:13:00;98539.60;;;5.98
68510;BMP180;55512;50.102;19.958;2023-03-30T06:15:26;98533.40;;;6.00
68510;BMP180;55512;50.102;19.958;2023-03-30T06:17:51;98532.00;;;6.10
68510;BMP180;55512;50.102;19.958;2023-03-30T06:20:18;98527.80;;;6.18
68510;BMP180;55512;50.102;19.958;2023-03-30T06:22:49;98527.00;;;6.20
68510;BMP180;55512;50.102;19.958;2023-03-30T06:25:16;98528.60;;;6.30
68510;BMP180;55512;50.102;19.958;2023-03-30T06:27:44;98522.00;;;6.40
68510;BMP180;55512;50.102;19.958;2023-03-30T06:30:11;98516.80;;;6.44
68510;BMP180;55512;50.102;19.958;2023-03-30T06:32:36;98519.00;;;6.50
68510;BMP180;55512;50.102;19.958;2023-03-30T06:35:02;98515.40;;;6.60
68510;BMP180;55512;50.102;19.958;2023-03-30T06:37:31;98517.40;;;6.70
68510;BMP180;55512;50.102;19.958;2023-03-30T06:39:56;98506.80;;;6.80
68510;BMP180;55512;50.102;19.958;2023-03-30T06:42:22;98508.80;;;6.90
68510;BMP180;55512;50.102;19.958;2023-03-30T06:44:48;98508.40;;;6.98
68510;BMP180;55512;50.102;19.958;2023-03-30T06:47:13;98511.60;;;7.00
68510;BMP180;55512;50.102;19.958;2023-03-30T06:49:39;98509.40;;;7.10
68510;BMP180;55512;50.102;19.958;2023-03-30T06:52:05;98509.00;;;7.20
68510;BMP180;55512;50.102;19.958;2023-03-30T06:54:31;98503.00;;;7.30
68510;BMP180;55512;50.102;19.958;2023-03-30T06:56:56;98503.20;;;7.40
68510;BMP180;55512;50.102;19.958;2023-03-30T06:59:21;98506.20;;;7.50
68510;BMP180;55512;50.102;19.958;2023-03-30T07:01:47;98503.40;;;7.60
68510;BMP180;55512;50.102;19.958;2023-03-30T07:04:12;98502.00;;;7.70
68510;BMP180;55512;50.102;19.958;2023-03-30T07:06:38;98509.00;;;7.80
68510;BMP180;55512;50.102;19.958;2023-03-30T07:09:03;98507.20;;;7.90
68510;BMP180;55512;50.102;19.958;2023-03-30T07:11:31;98507.60;;;8.00
68510;BMP180;55512;50.102;19.958;2023-03-30T07:13:57;98506.00;;;8.10
68510;BMP180;55512;50.102;19.958;2023-03-30T07:16:24;98499.40;;;8.20
68510;BMP180;55512;50.102;19.958;2023-03-30T07:18:50;98498.20;;;8.30
68510;BMP180;55512;50.102;19.958;2023-03-30T07:21:17;98500.00;;;8.40
68510;BMP180;55512;50.102;19.958;2023-03-30T07:23:42;98495.20;;;8.56
68510;BMP180;55512;50.102;19.958;2023-03-30T07:26:09;98495.80;;;8.68
68510;BMP180;55512;50.102;19.958;2023-03-30T07:28:35;98493.00;;;8.80
68510;BMP180;55512;50.102;19.958;2023-03-30T07:31:11;98493.20;;;8.90
68510;BMP180;55512;50.102;19.958;2023-03-30T07:33:38;98489.00;;;9.00
68510;BMP180;55512;50.102;19.958;2023-03-30T07:36:04;98486.40;;;9.10
68510;BMP180;55512;50.102;19.958;2023-03-30T07:38:31;98487.80;;;9.20
68510;BMP180;55512;50.102;19.958;2023-03-30T07:40:56;98479.60;;;9.40
68510;BMP180;55512;50.102;19.958;2023-03-30T07:43:21;98477.40;;;9.50
68510;BMP180;55512;50.102;19.958;2023-03-30T07:45:47;98480.00;;;9.60
68510;BMP180;55512;50.102;19.958;2023-03-30T07:48:12;98485.80;;;9.70
68510;BMP180;55512;50.102;19.958;2023-03-30T07:50:38;98481.00;;;9.82
68510;BMP180;55512;50.102;19.958;2023-03-30T07:53:03;98481.20;;;9.92
68510;BMP180;55512;50.102;19.958;2023-03-30T07:55:29;98475.00;;;10.08
68510;BMP180;55512;50.102;19.958;2023-03-30T07:57:55;98477.60;;;10.20
68510;BMP180;55512;50.102;19.958;2023-03-30T08:00:22;98478.80;;;10.30
68510;BMP180;55512;50.102;19.958;2023-03-30T08:02:48;98478.00;;;10.40
68510;BMP180;55512;50.102;19.958;2023-03-30T08:05:15;98477.40;;;10.50
68510;BMP180;55512;50.102;19.958;2023-03-30T08:07:42;98468.40;;;10.60
68510;BMP180;55512;50.102;19.958;2023-03-30T08:10:09;98459.80;;;10.70
68510;BMP180;55512;50.102;19.958;2023-03-30T08:12:35;98461.60;;;10.82
68510;BMP180;55512;50.102;19.958;2023-03-30T08:15:02;98454.20;;;10.94
68510;BMP180;55512;50.102;19.958;2023-03-30T08:17:28;98449.60;;;11.10
68510;BMP180;55512;50.102;19.958;2023-03-30T08:19:53;98443.60;;;11.20
68510;BMP180;55512;50.102;19.958;2023-03-30T08:22:21;98438.80;;;11.30
68510;BMP180;55512;50.102;19.958;2023-03-30T08:24:47;98443.60;;;11.40
68510;BMP180;55512;50.102;19.958;2023-03-30T08:27:12;98445.80;;;11.40
68510;BMP180;55512;50.102;19.958;2023-03-30T08:29:38;98449.60;;;11.50
68510;BMP180;55512;50.102;19.958;2023-03-30T08:32:03;98445.60;;;11.52
68510;BMP180;55512;50.102;19.958;2023-03-30T08:34:29;98448.00;;;11.60
68510;BMP180;55512;50.102;19.958;2023-03-30T08:36:54;98454.40;;;11.72
68510;BMP180;55512;50.102;19.958;2023-03-30T08:39:20;98451.40;;;11.86
68510;BMP180;55512;50.102;19.958;2023-03-30T08:42:01;98443.20;;;11.94
68510;BMP180;55512;50.102;19.958;2023-03-30T08:44:36;98443.40;;;12.10
68510;BMP180;55512;50.102;19.958;2023-03-30T08:47:10;98443.60;;;12.20
68510;BMP180;55512;50.102;19.958;2023-03-30T08:49:45;98438.00;;;12.30
68510;BMP180;55512;50.102;19.958;2023-03-30T08:52:22;98433.00;;;12.40
68510;BMP180;55512;50.102;19.958;2023-03-30T08:54:49;98438.60;;;12.52
68510;BMP180;55512;50.102;19.958;2023-03-30T08:57:50;98439.80;;;12.68
68510;BMP180;55512;50.102;19.958;2023-03-30T09:00:47;98438.40;;;12.80
68510;BMP180;55512;50.102;19.958;2023-03-30T09:03:35;98440.20;;;12.92
68510;BMP180;55512;50.102;19.958;2023-03-30T09:06:13;98440.40;;;13.04
68510;BMP180;55512;50.102;19.958;2023-03-30T09:08:41;98440.20;;;13.18
68510;BMP180;55512;50.102;19.958;2023-03-30T09:11:17;98442.00;;;13.20
68510;BMP180;55512;50.102;19.958;2023-03-30T09:13:47;98442.60;;;13.30
68510;BMP180;55512;50.102;19.958;2023-03-30T09:16:45;98443.20;;;13.30
68510;BMP180;55512;50.102;19.958;2023-03-30T09:19:24;98433.60;;;13.40
68510;BMP180;55512;50.102;19.958;2023-03-30T09:21:52;98432.80;;;13.40
68510;BMP180;55512;50.102;19.958;2023-03-30T09:24:26;98424.60;;;13.50
68510;BMP180;55512;50.102;19.958;2023-03-30T09:29:46;98418.80;;;13.60
68510;BMP180;55512;50.102;19.958;2023-03-30T09:32:15;98414.60;;;13.68
68510;BMP180;55512;50.102;19.958;2023-03-30T09:35:04;98408.60;;;13.70
68510;BMP180;55512;50.102;19.958;2023-03-30T09:37:36;98401.60;;;13.80
68510;BMP180;55512;50.102;19.958;2023-03-30T09:40:25;98404.60;;;13.90
68510;BMP180;55512;50.102;19.958;2023-03-30T09:43:31;98392.60;;;14.00
68510;BMP180;55512;50.102;19.958;2023-03-30T09:45:52;98383.00;;;14.10
68510;BMP180;55512;50.102;19.958;2023-03-30T09:48:17;98377.00;;;14.20
68510;BMP180;55512;50.102;19.958;2023-03-30T09:50:44;98373.40;;;14.30
68510;BMP180;55512;50.102;19.958;2023-03-30T09:53:21;98375.40;;;14.40
68510;BMP180;55512;50.102;19.958;2023-03-30T09:56:07;98382.40;;;14.50
68510;BMP180;55512;50.102;19.958;2023-03-30T09:58:36;98378.80;;;14.60
68510;BMP180;55512;50.102;19.958;2023-03-30T10:01:07;98378.00;;;14.60
68510;BMP180;55512;50.102;19.958;2023-03-30T10:03:36;98375.80;;;14.60
68510;BMP180;55512;50.102;19.958;2023-03-30T10:06:09;98371.00;;;14.60
68510;BMP180;55512;50.102;19.958;2023-03-30T10:08:54;98368.60;;;14.60
68510;BMP180;55512;50.102;19.958;2023-03-30T10:11:48;98368.40;;;14.62
68510;BMP180;55512;50.102;19.958;2023-03-30T10:16:56;98356.60;;;14.70
68510;BMP180;55512;50.102;19.958;2023-03-30T10:19:22;98354.00;;;14.80
68510;BMP180;55512;50.102;19.958;2023-03-30T10:21:54;98354.80;;;14.84
68510;BMP180;55512;50.102;19.958;2023-03-30T10:24:27;98350.40;;;14.90
68510;BMP180;55512;50.102;19.958;2023-03-30T10:27:11;98342.40;;;14.96
68510;BMP180;55512;50.102;19.958;2023-03-30T10:29:44;98335.40;;;15.00
68510;BMP180;55512;50.102;19.958;2023-03-30T10:32:22;98323.00;;;15.10
68510;BMP180;55512;50.102;19.958;2023-03-30T10:34:54;98320.00;;;15.14
68510;BMP180;55512;50.102;19.958;2023-03-30T10:37:33;98324.60;;;15.20
68510;BMP180;55512;50.102;19.958;2023-03-30T10:40:08;98318.20;;;15.20
68510;BMP180;55512;50.102;19.958;2023-03-30T10:42:36;98314.00;;;15.30
68510;BMP180;55512;50.102;19.958;2023-03-30T10:45:04;98303.60;;;15.40
68510;BMP180;55512;50.102;19.958;2023-03-30T10:56:33;98276.80;;;15.80
68510;BMP180;55512;50.102;19.958;2023-03-30T11:04:35;98274.20;;;16.20
68510;BMP180;55512;50.102;19.958;2023-03-30T11:07:09;98265.60;;;16.40
68510;BMP180;55512;50.102;19.958;2023-03-30T11:09:40;98271.40;;;16.50
68510;BMP180;55512;50.102;19.958;2023-03-30T11:12:18;98264.80;;;16.50
68510;BMP180;55512;50.102;19.958;2023-03-30T11:14:54;98257.60;;;16.60
68510;BMP180;55512;50.102;19.958;2023-03-30T11:17:37;98250.60;;;16.70
68510;BMP180;55512;50.102;19.958;2023-03-30T11:20:26;98250.80;;;16.80
68510;BMP180;55512;50.102;19.958;2023-03-30T11:23:19;98241.80;;;16.90
68510;BMP180;55512;50.102;19.958;2023-03-30T11:26:01;98232.60;;;17.00
68510;BMP180;55512;50.102;19.958;2023-03-30T11:28:54;98243.00;;;17.10
68510;BMP180;55512;50.102;19.958;2023-03-30T11:31:54;98242.20;;;17.02
68510;BMP180;55512;50.102;19.958;2023-03-30T11:34:31;98240.40;;;17.00
68510;BMP180;55512;50.102;19.958;2023-03-30T11:40:20;98238.00;;;16.90
68510;BMP180;55512;50.102;19.958;2023-03-30T11:42:47;98243.40;;;16.90
68510;BMP180;55512;50.102;19.958;2023-03-30T11:54:46;98228.40;;;16.80
68510;BMP180;55512;50.102;19.958;2023-03-30T11:57:39;98233.80;;;16.70
68510;BMP180;55512;50.102;19.958;2023-03-30T12:03:32;98229.20;;;16.70
68510;BMP180;55512;50.102;19.958;2023-03-30T12:06:33;98232.80;;;16.60
68510;BMP180;55512;50.102;19.958;2023-03-30T12:09:21;98233.40;;;16.52
68510;BMP180;55512;50.102;19.958;2023-03-30T12:12:15;98233.40;;;16.50
68510;BMP180;55512;50.102;19.958;2023-03-30T12:14:59;98218.40;;;16.40
68510;BMP180;55512;50.102;19.958;2023-03-30T12:20:46;98206.40;;;16.50
68510;BMP180;55512;50.102;19.958;2023-03-30T12:23:40;98200.00;;;16.66
68510;BMP180;55512;50.102;19.958;2023-03-30T12:26:24;98193.80;;;16.80
68510;BMP180;55512;50.102;19.958;2023-03-30T12:31:19;98181.20;;;16.90
68510;BMP180;55512;50.102;19.958;2023-03-30T12:33:50;98177.00;;;17.00
68510;BMP180;55512;50.102;19.958;2023-03-30T12:36:29;98166.60;;;17.00
68510;BMP180;55512;50.102;19.958;2023-03-30T12:38:57;98160.00;;;17.00
68510;BMP180;55512;50.102;19.958;2023-03-30T12:41:36;98166.20;;;17.10
68510;BMP180;55512;50.102;19.958;2023-03-30T12:47:55;98179.40;;;17.10
68510;BMP180;55512;50.102;19.958;2023-03-30T12:59:27;98190.40;;;17.00
68510;BMP180;55512;50.102;19.958;2023-03-30T13:02:40;98186.20;;;17.00
68510;BMP180;55512;50.102;19.958;2023-03-30T13:05:23;98180.80;;;17.02
68510;BMP180;55512;50.102;19.958;2023-03-30T13:07:53;98190.80;;;17.00
68510;BMP180;55512;50.102;19.958;2023-03-30T13:12:57;98186.20;;;16.94
68510;BMP180;55512;50.102;19.958;2023-03-30T13:15:32;98180.60;;;16.90
68510;BMP180;55512;50.102;19.958;2023-03-30T13:18:41;98179.00;;;16.90
68510;BMP180;55512;50.102;19.958;2023-03-30T13:26:11;98187.60;;;16.80
68510;BMP180;55512;50.102;19.958;2023-03-30T13:29:08;98183.40;;;16.80
68510;BMP180;55512;50.102;19.958;2023-03-30T13:32:02;98180.60;;;16.70
68510;BMP180;55512;50.102;19.958;2023-03-30T13:40:15;98176.40;;;16.70
68510;BMP180;55512;50.102;19.958;2023-03-30T13:51:27;98171.60;;;16.60
68510;BMP180;55512;50.102;19.958;2023-03-30T13:57:00;98170.80;;;16.52
68510;BMP180;55512;50.102;19.958;2023-03-30T13:59:31;98168.60;;;16.50
68510;BMP180;55512;50.102;19.958;2023-03-30T14:02:00;98169.20;;;16.40
68510;BMP180;55512;50.102;19.958;2023-03-30T14:04:33;98167.40;;;16.40
68510;BMP180;55512;50.102;19.958;2023-03-30T14:07:12;98172.20;;;16.34
68510;BMP180;55512;50.102;19.958;2023-03-30T14:09:40;98172.20;;;16.30
68510;BMP180;55512;50.102;19.958;2023-03-30T14:12:06;98168.80;;;16.30
68510;BMP180;55512;50.102;19.958;2023-03-30T14:14:37;98170.80;;;16.20
68510;BMP180;55512;50.102;19.958;2023-03-30T14:17:18;98170.60;;;16.20
68510;BMP180;55512;50.102;19.958;2023-03-30T14:20:16;98170.40;;;16.16
68510;BMP180;55512;50.102;19.958;2023-03-30T14:22:47;98166.60;;;16.10
68510;BMP180;55512;50.102;19.958;2023-03-30T14:25:40;98162.40;;;16.10
68510;BMP180;55512;50.102;19.958;2023-03-30T14:28:26;98154.60;;;16.02
68510;BMP180;55512;50.102;19.958;2023-03-30T14:30:57;98151.60;;;16.00
68510;BMP180;55512;50.102;19.958;2023-03-30T14:33:24;98148.20;;;16.00
68510;BMP180;55512;50.102;19.958;2023-03-30T14:35:56;98150.80;;;15.90
68510;BMP180;55512;50.102;19.958;2023-03-30T14:38:27;98149.00;;;15.90
68510;BMP180;55512;50.102;19.958;2023-03-30T14:40:55;98148.60;;;15.90
68510;BMP180;55512;50.102;19.958;2023-03-30T14:43:24;98149.20;;;15.80
68510;BMP180;55512;50.102;19.958;2023-03-30T14:45:53;98149.20;;;15.80
68510;BMP180;55512;50.102;19.958;2023-03-30T14:48:32;98145.00;;;15.78
68510;BMP180;55512;50.102;19.958;2023-03-30T14:51:01;98139.80;;;15.70
68510;BMP180;55512;50.102;19.958;2023-03-30T14:53:28;98138.20;;;15.70
68510;BMP180;55512;50.102;19.958;2023-03-30T14:55:58;98139.00;;;15.70
68510;BMP180;55512;50.102;19.958;2023-03-30T14:58:28;98137.00;;;15.72
68510;BMP180;55512;50.102;19.958;2023-03-30T15:00:59;98139.80;;;15.72
68510;BMP180;55512;50.102;19.958;2023-03-30T15:03:30;98139.60;;;15.74
68510;BMP180;55512;50.102;19.958;2023-03-30T15:06:02;98138.20;;;15.70
68510;BMP180;55512;50.102;19.958;2023-03-30T15:08:35;98143.20;;;15.70
68510;BMP180;55512;50.102;19.958;2023-03-30T15:11:11;98136.20;;;15.70
68510;BMP180;55512;50.102;19.958;2023-03-30T15:13:43;98138.60;;;15.70
68510;BMP180;55512;50.102;19.958;2023-03-30T15:16:20;98136.20;;;15.70
68510;BMP180;55512;50.102;19.958;2023-03-30T15:18:51;98137.00;;;15.70
68510;BMP180;55512;50.102;19.958;2023-03-30T15:21:18;98140.60;;;15.70
68510;BMP180;55512;50.102;19.958;2023-03-30T15:23:47;98140.60;;;15.70
68510;BMP180;55512;50.102;19.958;2023-03-30T15:26:14;98137.60;;;15.70
68510;BMP180;55512;50.102;19.958;2023-03-30T15:28:53;98141.00;;;15.62
68510;BMP180;55512;50.102;19.958;2023-03-30T15:31:20;98142.80;;;15.60
68510;BMP180;55512;50.102;19.958;2023-03-30T15:33:55;98150.60;;;15.50
68510;BMP180;55512;50.102;19.958;2023-03-30T15:36:35;98148.00;;;15.50
68510;BMP180;55512;50.102;19.958;2023-03-30T15:39:17;98160.40;;;15.40
68510;BMP180;55512;50.102;19.958;2023-03-30T15:41:48;98150.20;;;15.20
68510;BMP180;55512;50.102;19.958;2023-03-30T15:44:22;98140.40;;;15.02
68510;BMP180;55512;50.102;19.958;2023-03-30T15:46:51;98149.60;;;14.90
68510;BMP180;55512;50.102;19.958;2023-03-30T15:49:21;98143.00;;;14.80
68510;BMP180;55512;50.102;19.958;2023-03-30T15:51:57;98140.40;;;14.80
68510;BMP180;55512;50.102;19.958;2023-03-30T15:54:38;98131.60;;;14.70
68510;BMP180;55512;50.102;19.958;2023-03-30T15:59:48;98123.00;;;14.50
68510;BMP180;55512;50.102;19.958;2023-03-30T16:02:36;98134.60;;;14.50
68510;BMP180;55512;50.102;19.958;2023-03-30T16:05:06;98119.40;;;14.32
68510;BMP180;55512;50.102;19.958;2023-03-30T16:07:32;98118.80;;;14.26
68510;BMP180;55512;50.102;19.958;2023-03-30T16:09:58;98120.40;;;14.20
68510;BMP180;55512;50.102;19.958;2023-03-30T16:12:27;98113.80;;;14.12
68510;BMP180;55512;50.102;19.958;2023-03-30T16:14:54;98120.00;;;14.10
68510;BMP180;55512;50.102;19.958;2023-03-30T16:17:20;98115.40;;;14.00
68510;BMP180;55512;50.102;19.958;2023-03-30T16:19:45;98113.00;;;14.00
68510;BMP180;55512;50.102;19.958;2023-03-30T16:22:14;98107.60;;;13.90
68510;BMP180;55512;50.102;19.958;2023-03-30T16:24:41;98103.20;;;13.80
68510;BMP180;55512;50.102;19.958;2023-03-30T16:27:10;98102.80;;;13.70